EW9394 Weather Reports


time (UTC)temp
C
wind
direction
speed
KPH
gust
KPH
rain 1hr
cm
rain 24hr
cm
rain mn
cm
humidity
%
barometer
mb
20220524021340 21 46 4.8 8.0 0.00 0.00 0.00 80 1015.1
20220524020840 21 132 3.2 4.8 0.00 0.00 0.00 80 1015.1
20220524020339 21 70 4.8 8.0 0.00 0.00 0.00 80 1015.1
20220524015839 21 35 6.4 8.0 0.00 0.00 0.00 79 1015.1
20220524015339 22 57 6.4 9.7 0.00 0.00 0.00 78 1015.2
20220524014838 22 237 1.6 3.2 0.00 0.00 0.00 78 1014.9
20220524014337 22 72 3.2 4.8 0.00 0.00 0.00 78 1014.7
20220524013835 22 113 1.6 3.2 0.00 0.00 0.00 77 1014.9
20220524013333 22 81 3.2 3.2 0.00 0.00 0.00 77 1015.1
20220524012832 22 117 1.6 3.2 0.00 0.00 0.00 77 1014.6
20220524012331 22 60 3.2 3.2 0.00 0.00 0.00 77 1014.6
20220524011829 22 35 3.2 4.8 0.00 0.00 0.00 76 1014.6
20220524011328 23 67 4.8 8.0 0.00 0.00 0.00 75 1014.5
20220524010827 22 60 3.2 4.8 0.00 0.00 0.00 75 1014.7
20220524010325 23 91 4.8 4.8 0.00 0.00 0.00 75 1015.0
20220524005824 23 82 3.2 4.8 0.00 0.00 0.00 75 1014.5
20220524005323 23 43 3.2 3.2 0.00 0.00 0.00 73 1014.8
20220524004821 23 123 1.6 3.2 0.00 0.00 0.00 75 1014.7
20220524004322 23 164 1.6 1.6 0.00 0.00 0.00 74 1014.9
20220524003820 23 188 1.6 3.2 0.00 0.00 0.00 72 1014.7
20220524003318 23 43 1.6 4.8 0.00 0.00 0.00 73 1014.6
20220524002817 23 179 4.8 8.0 0.00 0.00 0.00 72 1014.6
20220524002316 23 144 1.6 1.6 0.00 0.00 0.00 72 1014.8
20220524001815 23 90 3.2 3.2 0.00 0.00 0.00 73 1014.6
20220524001314 23 98 1.6 1.6 0.00 0.00 0.00 73 1014.6
20220524000813 24 99 1.6 1.6 0.00 0.00 0.00 72 1014.8
20220524000311 23 32 1.6 3.2 0.00 0.00 0.00 73 1014.6
20220523235811 23 50 1.6 3.2 0.00 0.00 0.00 73 1014.7
20220523235309 24 50 4.8 11.3 0.00 0.00 0.00 72 1014.7
20220523234808 24 56 3.2 3.2 0.00 0.00 0.00 70 1014.5
20220523234307 24 30 6.4 9.7 0.00 0.00 0.00 70 1014.6
20220523233806 24 87 1.6 3.2 0.00 0.00 0.00 70 1014.7
20220523233304 24 68 3.2 4.8 0.00 0.00 0.00 70 1014.6
20220523232803 24 186 1.6 3.2 0.00 0.00 0.00 70 1014.6
20220523232302 25 74 4.8 8.0 0.00 0.00 0.00 69 1014.8
20220523231801 24 61 3.2 4.8 0.00 0.00 0.00 69 1014.8
20220523231259 24 68 1.6 3.2 0.00 0.00 0.00 69 1015.0
20220523230758 25 47 1.6 3.2 0.00 0.00 0.00 68 1015.0
20220523230257 24 188 3.2 3.2 0.00 0.00 0.00 69 1015.1
20220523225757 24 140 1.6 1.6 0.00 0.00 0.00 69 1015.2
20220523225255 25 95 4.8 4.8 0.00 0.00 0.00 68 1015.3
20220523224753 25 178 1.6 3.2 0.00 0.00 0.00 68 1015.2
20220523224253 25 86 1.6 3.2 0.00 0.00 0.00 68 1015.3
20220523223751 25 62 3.2 3.2 0.00 0.00 0.00 67 1015.3
20220523223251 25 41 1.6 3.2 0.00 0.00 0.00 66 1015.3
20220523222749 25 183 0.0 0.0 0.00 0.00 0.00 67 1015.5
20220523222249 26 139 3.2 3.2 0.00 0.00 0.00 64 1015.5
20220523221749 26 111 1.6 3.2 0.00 0.00 0.00 65 1015.4
20220523221248 26 74 0.0 1.6 0.00 0.00 0.00 66 1015.5
20220523220746 27 183 1.6 1.6 0.00 0.00 0.00 63 1015.5
20220523220246 27 253 1.6 1.6 0.00 0.00 0.00 62 1015.4
20220523215747 26 218 0.0 1.6 0.00 0.00 0.00 65 1015.0
20220523215245 26 105 3.2 4.8 0.00 0.00 0.00 63 1015.1
20220523214743 26 128 1.6 1.6 0.00 0.00 0.00 64 1014.9
20220523214241 27 174 6.4 9.7 0.00 0.00 0.00 62 1015.1
20220523213741 27 130 1.6 3.2 0.00 0.00 0.00 61 1015.0
20220523213241 27 104 1.6 3.2 0.00 0.00 0.00 61 1015.0
20220523212740 26 178 0.0 1.6 0.00 0.00 0.00 64 1015.1
20220523212239 26 228 1.6 3.2 0.00 0.00 0.00 65 1015.0
20220523211739 25 188 0.0 0.0 0.00 0.00 0.00 67 1014.9
20220523211238 26 181 1.6 1.6 0.00 0.00 0.00 64 1015.2
20220523210738 25 283 0.0 1.6 0.00 0.00 0.00 68 1015.2
20220523210237 25 67 4.8 8.0 0.00 0.00 0.00 69 1015.2
20220523205736 26 68 1.6 3.2 0.00 0.00 0.00 66 1015.4
20220523205235 26 74 1.6 3.2 0.00 0.00 0.00 66 1015.4
20220523204734 25 41 3.2 4.8 0.00 0.00 0.00 68 1015.4
20220523204232 26 198 1.6 3.2 0.00 0.00 0.00 64 1015.4
20220523203732 25 215 3.2 4.8 0.00 0.00 0.00 67 1015.8
20220523203231 25 153 0.0 1.6 0.00 0.00 0.00 69 1015.6
20220523202729 25 158 1.6 3.2 0.00 0.00 0.00 66 1015.6
20220523202228 25 166 1.6 1.6 0.00 0.00 0.00 70 1016.0
20220523201727 25 57 3.2 8.0 0.00 0.00 0.00 68 1016.1
20220523201227 25 126 3.2 4.8 0.00 0.00 0.00 68 1016.2
20220523200726 25 46 4.8 8.0 0.00 0.00 0.00 68 1016.1
20220523200225 25 88 1.6 3.2 0.00 0.00 0.00 69 1016.6
20220523195724 25 75 1.6 1.6 0.00 0.00 0.00 69 1016.6
20220523195223 25 96 1.6 3.2 0.00 0.00 0.00 69 1016.9
20220523194721 25 52 6.4 8.0 0.00 0.00 0.00 68 1017.0
20220523194220 24 66 4.8 8.0 0.00 0.00 0.00 70 1017.1
20220523193718 24 47 3.2 3.2 0.00 0.00 0.00 70 1017.2
20220523193218 23 69 1.6 3.2 0.00 0.00 0.00 73 1017.1
20220523192717 23 51 1.6 1.6 0.00 0.00 0.00 72 1016.8
20220523192215 24 98 1.6 4.8 0.00 0.00 0.00 72 1017.0
20220523191714 25 162 1.6 1.6 0.00 0.00 0.00 69 1017.1
20220523191213 25 338 4.8 4.8 0.00 0.00 0.00 69 1017.2
20220523190713 23 66 3.2 4.8 0.00 0.00 0.00 72 1017.4
20220523190212 23 165 0.0 1.6 0.00 0.00 0.00 72 1017.6
20220523185710 23 45 4.8 8.0 0.00 0.00 0.00 71 1017.8
20220523185209 24 224 1.6 1.6 0.00 0.00 0.00 70 1018.0
20220523184709 23 123 1.6 1.6 0.00 0.00 0.00 72 1017.9
20220523184207 23 178 1.6 4.8 0.00 0.00 0.00 72 1018.2
20220523183706 23 185 3.2 4.8 0.00 0.00 0.00 74 1018.1
20220523183205 23 83 3.2 4.8 0.00 0.00 0.00 73 1018.1
20220523182705 23 143 0.0 1.6 0.00 0.00 0.00 71 1018.2
20220523182205 22 67 3.2 4.8 0.00 0.00 0.00 75 1018.2
20220523181704 22 58 3.2 3.2 0.00 0.00 0.00 76 1018.5
20220523181205 22 58 3.2 4.8 0.00 0.00 0.00 77 1018.6
20220523180705 22 83 1.6 1.6 0.00 0.00 0.00 78 1018.7
20220523180204 22 32 1.6 1.6 0.00 0.00 0.00 77 1018.7
20220523175703 22 73 4.8 4.8 0.00 0.00 0.00 77 1018.6
20220523175202 22 220 3.2 3.2 0.00 0.00 0.00 78 1018.8
20220523174700 22 103 3.2 4.8 0.00 0.00 0.00 78 1018.7
20220523174158 21 56 0.0 0.0 0.00 0.00 0.00 79 1019.2
20220523173656 21 67 4.8 4.8 0.00 0.00 0.00 79 1018.9
20220523173155 21 50 4.8 8.0 0.00 0.00 0.00 79 1019.1
20220523172655 22 132 4.8 8.0 0.00 0.00 0.00 78 1018.9
20220523172156 22 137 1.6 3.2 0.00 0.00 0.00 78 1019.2
20220523171654 21 309 4.8 8.0 0.00 0.00 0.00 79 1018.9
20220523171152 21 59 3.2 4.8 0.00 0.00 0.00 80 1019.2
20220523170653 21 152 1.6 3.2 0.00 0.00 0.00 80 1019.3
20220523170151 21 275 3.2 4.8 0.00 0.00 0.00 80 1019.4
20220523165650 21 179 3.2 3.2 0.00 0.00 0.00 80 1019.4
20220523165148 21 124 1.6 4.8 0.00 0.00 0.00 82 1019.5
20220523164646 21 102 1.6 3.2 0.00 0.00 0.00 81 1019.3
20220523164145 20 48 4.8 4.8 0.00 0.00 0.00 83 1019.6
20220523163644 20 61 3.2 4.8 0.00 0.00 0.00 84 1019.7
20220523163143 20 66 0.0 1.6 0.00 0.00 0.00 85 1019.9
20220523162641 20 161 0.0 1.6 0.00 0.00 0.00 86 1019.7
20220523162141 20 48 3.2 3.2 0.00 0.00 0.00 86 1019.9
20220523161640 20 46 3.2 8.0 0.00 0.00 0.00 86 1019.7
20220523161140 20 66 1.6 1.6 0.00 0.00 0.00 86 1020.1
20220523160639 20 75 1.6 3.2 0.00 0.00 0.00 86 1020.1
20220523160137 20 95 1.6 1.6 0.00 0.00 0.00 88 1019.9
20220523155636 19 90 1.6 1.6 0.00 0.00 0.00 88 1020.3
20220523155135 19 177 3.2 4.8 0.00 0.00 0.00 89 1020.2
20220523154634 19 97 0.0 1.6 0.00 0.00 0.00 90 1020.6
20220523154132 19 127 0.0 1.6 0.00 0.00 0.00 90 1020.7
20220523153630 18 69 1.6 3.2 0.00 0.00 0.00 90 1020.7
20220523153130 18 77 1.6 1.6 0.00 0.00 0.00 91 1020.8
20220523152628 18 217 0.0 0.0 0.00 0.00 0.00 92 1021.0
20220523152127 18 185 0.0 0.0 0.00 0.00 0.00 93 1020.7
20220523151627 18 208 0.0 0.0 0.00 0.00 0.00 95 1020.8
20220523151126 18 12 1.6 1.6 0.00 0.00 0.00 96 1020.8
20220523150624 17 253 1.6 3.2 0.00 0.00 0.00 97 1020.7
20220523150123 17 172 0.0 1.6 0.00 0.00 0.00 98 1021.1
20220523145622 17 105 1.6 1.6 0.00 0.00 0.00 98 1021.0
20220523145121 17 67 0.0 1.6 0.00 0.00 0.00 99 1020.8
20220523144622 17 53 0.0 1.6 0.00 0.00 0.00 99 1021.0
20220523144120 17 128 0.0 1.6 0.00 0.00 0.00 99 1021.1
20220523143620 17 214 0.0 0.0 0.00 0.00 0.00 99 1020.9
20220523143119 17 53 0.0 1.6 0.00 0.00 0.00 99 1021.0
20220523142617 17 131 0.0 1.6 0.00 0.00 0.00 99 1021.0
20220523142115 17 81 0.0 0.0 0.00 0.00 0.00 99 1020.8
20220523141613 17 129 0.0 0.0 0.00 0.00 0.00 99 1021.0
20220523141112 17 89 1.6 3.2 0.00 0.00 0.00 99 1021.1
20220523140610 17 185 0.0 0.0 0.00 0.00 0.00 99 1021.0
20220523140109 17 46 3.2 3.2 0.00 0.00 0.00 99 1021.2
20220523135607 17 165 0.0 0.0 0.00 0.00 0.00 99 1021.0
20220523135106 17 214 0.0 0.0 0.00 0.00 0.00 99 1021.0
20220523134604 16 13 0.0 0.0 0.00 0.00 0.00 99 1021.1
20220523134103 17 210 0.0 1.6 0.00 0.00 0.00 99 1021.1
20220523133603 17 142 0.0 1.6 0.00 0.00 0.00 99 1021.1
20220523133102 16 108 0.0 0.0 0.00 0.00 0.00 99 1021.3
20220523132600 16 109 1.6 1.6 0.00 0.00 0.00 99 1021.2
20220523132100 16 161 0.0 0.0 0.00 0.00 0.00 99 1021.4
20220523131559 16 106 0.0 1.6 0.00 0.00 0.00 99 1021.3
20220523131058 16 153 1.6 1.6 0.00 0.00 0.00 99 1021.4
20220523130558 16 222 1.6 3.2 0.00 0.00 0.00 99 1021.2
20220523130057 16 80 1.6 3.2 0.00 0.00 0.00 99 1021.4
20220523125556 16 198 0.0 0.0 0.00 0.00 0.00 99 1021.2
20220523125055 16 129 3.2 3.2 0.00 0.00 0.00 99 1021.2
20220523124554 16 142 0.0 0.0 0.00 0.00 0.00 99 1021.3
20220523124052 16 104 1.6 1.6 0.00 0.00 0.00 99 1021.2
20220523123551 16 61 1.6 1.6 0.00 0.00 0.00 99 1021.2
20220523123050 16 71 0.0 0.0 0.00 0.00 0.00 99 1021.1
20220523122549 16 65 0.0 1.6 0.00 0.00 0.00 99 1020.9
20220523122048 16 51 1.6 1.6 0.00 0.00 0.00 99 1021.0
20220523121547 16 58 0.0 1.6 0.00 0.00 0.00 99 1020.9
20220523121046 16 59 0.0 0.0 0.00 0.00 0.00 99 1020.9
20220523120544 16 202 0.0 0.0 0.00 0.00 0.00 99 1020.9
20220523120043 16 203 0.0 1.6 0.00 0.00 0.00 99 1020.8
20220523115543 16 196 1.6 1.6 0.00 0.00 0.00 99 1020.6
20220523115042 16 154 0.0 1.6 0.00 0.00 0.00 99 1020.7
20220523114541 16 348 3.2 4.8 0.00 0.00 0.00 99 1020.4
20220523114039 16 106 1.6 3.2 0.00 0.00 0.00 99 1020.6
20220523113538 16 50 1.6 3.2 0.00 0.00 0.00 99 1020.5
20220523113038 16 29 4.8 9.7 0.00 0.00 0.00 99 1020.5
20220523112537 16 73 3.2 4.8 0.00 0.00 0.00 99 1020.2
20220523112035 16 145 0.0 1.6 0.00 0.00 0.00 99 1020.4
20220523111534 16 202 0.0 0.0 0.00 0.00 0.00 99 1020.4
20220523111033 16 223 0.0 1.6 0.00 0.00 0.00 99 1020.5
20220523110533 16 211 1.6 1.6 0.00 0.00 0.00 99 1020.4
20220523110033 16 230 0.0 0.0 0.00 0.00 0.00 99 1020.4
20220523105532 16 280 0.0 1.6 0.00 0.00 0.00 99 1020.4
20220523105031 16 199 0.0 0.0 0.00 0.00 0.00 99 1020.4
20220523104531 16 206 0.0 1.6 0.00 0.00 0.00 99 1020.3
20220523104029 16 203 0.0 0.0 0.00 0.00 0.00 99 1020.5
20220523103528 16 223 0.0 0.0 0.00 0.00 0.00 99 1020.2
20220523103027 16 146 0.0 0.0 0.00 0.00 0.00 99 1020.5
20220523102527 16 330 1.6 3.2 0.00 0.00 0.00 99 1020.4
20220523102026 16 238 0.0 1.6 0.00 0.00 0.00 99 1020.4
20220523101526 16 220 0.0 0.0 0.00 0.00 0.00 99 1020.4
20220523101025 15 221 0.0 0.0 0.00 0.00 0.00 99 1020.8
20220523100524 16 60 1.6 1.6 0.00 0.00 0.00 99 1020.6
20220523100022 15 195 0.0 1.6 0.00 0.00 0.00 99 1020.7
20220523095521 15 166 0.0 0.0 0.00 0.00 0.00 99 1020.7
20220523095020 15 26 0.0 1.6 0.00 0.00 0.00 99 1020.7
20220523094518 15 222 0.0 0.0 0.00 0.00 0.00 99 1020.7
20220523094017 15 260 4.8 8.0 0.00 0.00 0.00 99 1020.8
20220523093517 15 288 1.6 3.2 0.00 0.00 0.00 99 1020.7
20220523093016 15 279 0.0 0.0 0.00 0.00 0.00 99 1020.6
20220523092515 15 265 1.6 1.6 0.00 0.00 0.00 99 1020.8
20220523092014 15 254 4.8 4.8 0.00 0.00 0.00 99 1020.5
20220523091512 15 319 1.6 3.2 0.00 0.00 0.00 99 1020.6
20220523091011 15 229 1.6 1.6 0.00 0.00 0.00 99 1020.7
20220523090509 15 269 0.0 0.0 0.00 0.00 0.00 99 1020.9
20220523090009 15 343 3.2 3.2 0.00 0.00 0.00 99 1020.8
20220523085509 15 245 1.6 1.6 0.00 0.00 0.00 99 1020.8
20220523085008 15 267 1.6 1.6 0.00 0.00 0.00 99 1021.1
20220523084507 15 243 1.6 3.2 0.00 0.00 0.00 99 1020.9
20220523084006 15 291 1.6 1.6 0.00 0.00 0.00 98 1021.0
20220523083505 15 342 1.6 3.2 0.00 0.00 0.00 98 1021.0
20220523083004 16 256 3.2 4.8 0.00 0.00 0.00 98 1021.1
20220523082505 16 310 1.6 1.6 0.00 0.00 0.00 98 1021.2
20220523082003 16 223 0.0 0.0 0.00 0.00 0.00 98 1021.2
20220523081502 16 255 0.0 1.6 0.00 0.00 0.00 98 1021.2
20220523081003 16 222 0.0 0.0 0.00 0.00 0.00 98 1021.3
20220523080501 16 327 1.6 3.2 0.00 0.00 0.00 97 1021.4
20220523080000 16 208 1.6 1.6 0.00 0.00 0.00 97 1021.4
20220523075459 16 224 0.0 0.0 0.00 0.00 0.00 97 1021.5
20220523074958 16 229 1.6 1.6 0.00 0.00 0.00 96 1021.5
20220523074456 16 229 0.0 0.0 0.00 0.00 0.00 96 1021.6
20220523073955 16 249 1.6 1.6 0.00 0.00 0.00 96 1021.6
20220523073454 15 197 0.0 0.0 0.00 0.00 0.00 96 1021.6
20220523072953 15 280 1.6 1.6 0.00 0.00 0.00 96 1021.7
20220523072452 15 335 1.6 3.2 0.00 0.00 0.00 95 1021.6
20220523071950 15 301 0.0 1.6 0.00 0.00 0.00 95 1021.7
20220523071448 15 352 1.6 3.2 0.00 0.00 0.00 95 1021.6
20220523070947 15 246 1.6 1.6 0.00 0.00 0.00 95 1021.8
20220523070446 15 284 1.6 1.6 0.00 0.00 0.00 95 1021.9
20220523065944 15 292 1.6 1.6 0.00 0.00 0.00 95 1021.8
20220523065443 15 233 1.6 1.6 0.00 0.00 0.00 96 1021.7
20220523064942 15 220 0.0 0.0 0.00 0.00 0.00 96 1021.8
20220523064441 15 222 0.0 1.6 0.00 0.00 0.00 96 1021.7
20220523063940 15 206 0.0 1.6 0.00 0.00 0.00 96 1021.6
20220523063439 15 223 0.0 0.0 0.00 0.00 0.00 96 1021.5
20220523062939 15 263 0.0 1.6 0.00 0.00 0.00 96 1021.4
20220523062438 15 84 0.0 0.0 0.00 0.00 0.00 96 1021.4
20220523061937 15 36 3.2 4.8 0.00 0.00 0.00 96 1021.3
20220523061436 15 67 3.2 3.2 0.00 0.00 0.00 96 1021.3
20220523060935 15 121 1.6 3.2 0.00 0.00 0.00 96 1021.5
20220523060434 15 186 0.0 0.0 0.00 0.00 0.00 96 1021.6
20220523055933 15 64 1.6 1.6 0.00 0.00 0.00 96 1021.8
20220523055433 15 134 3.2 3.2 0.00 0.00 0.00 96 1021.7
20220523054931 15 36 1.6 1.6 0.00 0.00 0.00 96 1021.7
20220523054431 15 335 3.2 4.8 0.00 0.00 0.00 95 1022.0
20220523053931 15 221 0.0 1.6 0.00 0.00 0.00 95 1022.0
20220523053429 15 210 0.0 1.6 0.00 0.00 0.00 95 1022.1
20220523052928 15 209 1.6 1.6 0.00 0.00 0.00 95 1022.0
20220523052427 15 295 0.0 1.6 0.00 0.00 0.00 94 1022.0
20220523051926 15 60 1.6 1.6 0.00 0.00 0.00 94 1022.0
20220523051424 15 243 3.2 3.2 0.00 0.00 0.00 94 1022.2
20220523050922 15 83 1.6 3.2 0.00 0.00 0.00 93 1022.3
20220523050422 15 156 0.0 1.6 0.00 0.00 0.00 94 1022.2
20220523045921 15 65 1.6 1.6 0.00 0.00 0.00 94 1022.3
20220523045419 15 181 0.0 1.6 0.00 0.00 0.00 94 1022.4
20220523044920 15 225 3.2 4.8 0.00 0.00 0.00 95 1022.3
20220523044419 15 229 0.0 0.0 0.00 0.00 0.00 95 1022.4
20220523043918 15 276 1.6 3.2 0.00 0.00 0.00 95 1022.1
20220523043416 15 172 1.6 3.2 0.00 0.00 0.00 95 1022.5
20220523042916 15 64 1.6 3.2 0.00 0.00 0.00 95 1022.2
20220523042417 15 55 0.0 1.6 0.00 0.00 0.00 95 1022.3
20220523041915 15 177 1.6 3.2 0.00 0.00 0.00 94 1022.3
20220523041413 15 73 1.6 3.2 0.00 0.00 0.00 94 1022.3
20220523040912 15 153 1.6 1.6 0.00 0.00 0.00 94 1022.4
20220523040412 15 224 0.0 1.6 0.00 0.00 0.00 94 1022.4
20220523035911 16 17 0.0 1.6 0.00 0.00 0.00 93 1022.7
20220523035409 15 267 1.6 1.6 0.00 0.00 0.00 93 1022.7
20220523034908 16 268 3.2 3.2 0.00 0.00 0.00 92 1022.9
20220523034408 16 223 0.0 1.6 0.00 0.00 0.00 91 1022.8
20220523033906 16 265 1.6 1.6 0.00 0.00 0.00 91 1022.9
20220523033407 16 225 1.6 1.6 0.00 0.00 0.00 90 1022.8
20220523032906 16 177 0.0 1.6 0.00 0.00 0.00 89 1022.8
20220523032404 16 232 1.6 1.6 0.00 0.00 0.00 89 1022.5
20220523031903 16 210 0.0 0.0 0.00 0.00 0.00 88 1022.7
20220523031402 16 18 3.2 3.2 0.00 0.00 0.00 87 1022.4
20220523030903 16 82 1.6 1.6 0.00 0.00 0.00 87 1022.6
20220523030402 16 210 1.6 3.2 0.00 0.00 0.00 87 1022.5
20220523025900 16 231 0.0 0.0 0.00 0.00 0.00 87 1022.4
20220523025359 16 281 3.2 4.8 0.00 0.00 0.00 86 1022.3
20220523024858 16 219 0.0 0.0 0.00 0.00 0.00 86 1022.1
20220523024357 16 270 1.6 1.6 0.00 0.00 0.00 86 1022.2
20220523023856 16 117 3.2 3.2 0.00 0.00 0.00 85 1022.1
20220523023354 16 338 0.0 0.0 0.00 0.00 0.00 85 1022.3
20220523022854 16 190 1.6 1.6 0.00 0.00 0.00 85 1022.4
20220523022352 16 94 0.0 0.0 0.00 0.00 0.00 85 1022.2
20220523021851 16 53 0.0 0.0 0.00 0.00 0.00 85 1022.3